Time;durP1;ratioP1;P1;durP2;ratioP2;P2;SDS_P1;SDS_P2;PMS_P1;PMS_P2;Temp;Humidity;BMP_temperature;BMP_pressure;BME280_temperature;BME280_humidity;BME280_pressure;Samples;Min_cycle;Max_cycle;Signal;HPM_P1;HPM_P2
2022/12/16 00:00:11;;;;;;;25.67;14.33;;;3.40;99.90;;;;;;4112640;28;20273;-65
2022/12/16 00:02:12;;;;;;;29.87;15.60;;;3.40;99.90;;;;;;4111430;28;21098;-68
2022/12/16 00:04:13;;;;;;;26.10;14.17;;;3.40;99.90;;;;;;4112343;28;20319;-62
2022/12/16 00:06:15;;;;;;;27.63;14.80;;;3.40;99.90;;;;;;4111286;28;20288;-65
2022/12/16 00:08:16;;;;;;;25.60;13.77;;;3.40;99.90;;;;;;4113599;28;20914;-66
2022/12/16 00:10:17;;;;;;;29.13;15.77;;;3.40;99.90;;;;;;4112270;28;20289;-66
2022/12/16 00:12:18;;;;;;;32.50;15.03;;;3.40;99.90;;;;;;4112819;28;20355;-63
2022/12/16 00:14:19;;;;;;;27.07;14.03;;;3.40;99.90;;;;;;4112312;28;20327;-61
2022/12/16 00:16:21;;;;;;;27.30;13.23;;;3.40;99.90;;;;;;4113596;28;20327;-63
2022/12/16 00:18:22;;;;;;;26.40;13.77;;;3.40;99.90;;;;;;4111574;28;20563;-62
2022/12/16 00:20:23;;;;;;;27.10;15.17;;;3.40;99.90;;;;;;4112716;28;20281;-66
2022/12/16 00:22:24;;;;;;;28.93;14.97;;;3.30;99.90;;;;;;4111703;28;20630;-65
2022/12/16 00:24:25;;;;;;;26.87;14.53;;;3.30;99.90;;;;;;4112496;28;20347;-66
2022/12/16 00:26:28;;;;;;;28.57;13.80;;;3.20;99.90;;;;;;4112120;28;20277;-67
2022/12/16 00:28:30;;;;;;;26.70;14.33;;;3.10;99.90;;;;;;4111576;28;20285;-63
2022/12/16 00:30:31;;;;;;;27.27;13.87;;;3.00;99.90;;;;;;4112108;28;20269;-64
2022/12/16 00:32:32;;;;;;;28.33;13.87;;;3.00;99.90;;;;;;4112179;28;20269;-65
2022/12/16 00:34:33;;;;;;;28.90;14.13;;;3.00;99.90;;;;;;4096011;29;20266;-66
2022/12/16 00:36:34;;;;;;;32.37;15.53;;;2.90;99.90;;;;;;4111582;28;20269;-64
2022/12/16 00:38:35;;;;;;;29.37;15.50;;;2.90;99.90;;;;;;4112891;28;20277;-63
2022/12/16 00:40:36;;;;;;;26.90;15.03;;;2.90;99.90;;;;;;4112624;28;20257;-63
2022/12/16 00:42:37;;;;;;;26.87;14.00;;;2.90;99.90;;;;;;4112547;28;20823;-62
2022/12/16 00:44:38;;;;;;;32.57;16.03;;;2.90;99.90;;;;;;4111911;28;20273;-66
2022/12/16 00:46:39;;;;;;;32.77;15.47;;;2.90;99.90;;;;;;4112008;28;20269;-62
2022/12/16 00:48:41;;;;;;;31.27;14.67;;;2.90;99.90;;;;;;4111362;28;20840;-66
2022/12/16 00:50:54;;;;;;;29.27;15.37;;;2.80;99.90;;;;;;4112637;28;20323;-62
2022/12/16 00:52:55;;;;;;;28.23;14.37;;;2.80;99.90;;;;;;4114350;28;20665;-64
2022/12/16 00:54:59;;;;;;;30.27;15.60;;;2.80;99.90;;;;;;4115220;28;20328;-67
2022/12/16 00:57:00;;;;;;;32.70;14.93;;;2.80;99.90;;;;;;4115265;28;20726;-64
2022/12/16 00:59:01;;;;;;;31.53;15.00;;;2.80;99.90;;;;;;4115891;28;20276;-65
2022/12/16 01:01:03;;;;;;;27.07;13.23;;;2.80;99.90;;;;;;4114663;28;20257;-62
2022/12/16 01:03:04;;;;;;;29.17;14.73;;;2.80;99.90;;;;;;4114573;28;20269;-63
2022/12/16 01:05:06;;;;;;;33.23;15.00;;;2.90;99.90;;;;;;4114600;28;20285;-61
2022/12/16 01:07:08;;;;;;;33.20;16.00;;;2.80;99.90;;;;;;4114019;28;20285;-63
2022/12/16 01:09:09;;;;;;;36.13;15.00;;;2.80;99.90;;;;;;4115507;28;20276;-62
2022/12/16 01:11:10;;;;;;;30.40;14.63;;;2.80;99.90;;;;;;4114990;28;20293;-64
2022/12/16 01:13:11;;;;;;;34.07;14.87;;;2.80;99.90;;;;;;4114670;28;20335;-68
2022/12/16 01:15:13;;;;;;;30.13;13.63;;;2.80;99.90;;;;;;4113719;28;20331;-66
2022/12/16 01:17:15;;;;;;;29.53;12.60;;;2.80;99.90;;;;;;4114974;28;20280;-66
2022/12/16 01:19:16;;;;;;;30.17;13.33;;;2.80;99.90;;;;;;4114079;28;20292;-63
2022/12/16 01:21:17;;;;;;;29.60;14.03;;;2.80;99.90;;;;;;4114634;28;20306;-62
2022/12/16 01:23:18;;;;;;;27.53;11.97;;;2.90;99.90;;;;;;4097508;29;20266;-64
2022/12/16 01:25:19;;;;;;;34.20;14.03;;;2.80;99.90;;;;;;4114904;28;20745;-61
2022/12/16 01:27:20;;;;;;;28.70;13.03;;;2.90;99.90;;;;;;4114740;28;20253;-61
2022/12/16 01:29:21;;;;;;;29.30;13.63;;;2.90;99.90;;;;;;4114137;28;20344;-66
2022/12/16 01:31:23;;;;;;;32.43;12.10;;;2.90;99.90;;;;;;4113522;28;20328;-65
2022/12/16 01:33:24;;;;;;;28.57;12.53;;;2.90;99.90;;;;;;4115172;28;20752;-67
2022/12/16 01:35:25;;;;;;;31.53;13.17;;;2.80;99.90;;;;;;4115260;28;20312;-63
2022/12/16 01:37:27;;;;;;;27.80;12.80;;;2.80;99.90;;;;;;4113632;28;20269;-64
2022/12/16 01:39:29;;;;;;;31.27;13.50;;;2.80;99.90;;;;;;4115249;28;20265;-65
2022/12/16 01:41:30;;;;;;;36.80;14.10;;;2.80;99.90;;;;;;4114843;28;20340;-62
2022/12/16 01:43:35;;;;;;;32.47;13.00;;;2.80;99.90;;;;;;4114542;28;20669;-66
2022/12/16 01:45:36;;;;;;;36.07;14.87;;;2.80;99.90;;;;;;4113835;28;20742;-64
2022/12/16 01:47:37;;;;;;;36.30;11.70;;;2.80;99.90;;;;;;4114813;28;20680;-64
2022/12/16 01:50:03;;;;;;;29.77;13.47;;;2.80;99.90;;;;;;4114317;28;20276;-66
2022/12/16 01:52:08;;;;;;;33.00;12.67;;;2.80;99.90;;;;;;4115287;28;20745;-62
2022/12/16 01:54:15;;;;;;;33.50;13.33;;;2.80;99.90;;;;;;4113563;28;20323;-66
2022/12/16 01:56:18;;;;;;;35.20;13.13;;;2.70;99.90;;;;;;4114822;28;20281;-63
2022/12/16 01:58:24;;;;;;;35.47;14.73;;;2.80;99.90;;;;;;4114074;28;20280;-63
2022/12/16 02:00:25;;;;;;;39.47;15.37;;;2.70;99.90;;;;;;4114789;28;20273;-64
2022/12/16 02:02:26;;;;;;;34.50;12.93;;;2.80;99.90;;;;;;4113970;28;20277;-66
2022/12/16 02:04:28;;;;;;;31.97;13.73;;;2.80;99.90;;;;;;4114546;28;20281;-65
2022/12/16 02:06:30;;;;;;;33.27;14.27;;;2.80;99.90;;;;;;4114095;28;20269;-63
2022/12/16 02:08:31;;;;;;;34.30;13.77;;;2.80;99.90;;;;;;4115312;28;20360;-66
2022/12/16 02:10:42;;;;;;;36.17;14.10;;;2.80;99.90;;;;;;4114692;28;20315;-66
2022/12/16 02:13:12;;;;;;;35.27;14.20;;;2.80;99.90;;;;;;4114501;28;20292;-63
2022/12/16 02:15:38;;;;;;;39.90;14.03;;;2.80;99.90;;;;;;4113766;28;20383;-63
2022/12/16 02:18:07;;;;;;;41.17;15.17;;;2.80;99.90;;;;;;4114072;28;20265;-63
2022/12/16 02:20:43;;;;;;;37.20;15.10;;;2.80;99.90;;;;;;4113191;28;20260;-62
2022/12/16 02:23:08;;;;;;;38.97;15.27;;;2.80;99.90;;;;;;4099205;29;20269;-61
2022/12/16 02:25:34;;;;;;;36.97;13.70;;;2.70;99.90;;;;;;4081210;29;20758;-66
2022/12/16 02:27:59;;;;;;;29.07;13.03;;;2.70;99.90;;;;;;4097905;29;20266;-65
2022/12/16 02:30:19;;;;;;;35.93;14.63;;;2.70;99.90;;;;;;4112949;28;20273;-65
2022/12/16 02:32:40;;;;;;;31.40;14.50;;;2.70;99.90;;;;;;4113247;28;20297;-64
2022/12/16 02:34:41;;;;;;;;;;;2.70;99.90;;;;;;4115474;28;20280;-62
2022/12/16 02:36:55;;;;;;;;;;;2.70;99.90;;;;;;4114019;28;19906;-63
2022/12/16 02:39:10;;;;;;;32.67;14.33;;;2.70;99.90;;;;;;4114858;28;20325;-65
2022/12/16 02:41:41;;;;;;;40.00;15.57;;;2.70;99.90;;;;;;4113324;28;20276;-65
2022/12/16 02:44:05;;;;;;;38.47;16.85;;;2.70;99.90;;;;;;4114222;28;20273;-67
2022/12/16 02:46:07;;;;;;;38.80;16.73;;;2.70;99.90;;;;;;4113539;28;20373;-65
2022/12/16 02:48:08;;;;;;;43.27;17.00;;;2.70;99.90;;;;;;4113599;28;20292;-62
2022/12/16 02:50:30;;;;;;;38.83;16.40;;;2.70;99.90;;;;;;4113541;28;20746;-67
2022/12/16 02:52:33;;;;;;;36.07;15.90;;;2.70;99.90;;;;;;4114541;28;20350;-60
2022/12/16 02:54:34;;;;;;;36.40;15.30;;;2.70;99.90;;;;;;4113356;28;20261;-66
2022/12/16 02:56:47;;;;;;;36.30;16.43;;;2.70;99.90;;;;;;4114513;28;20272;-62
2022/12/16 02:59:09;;;;;;;37.40;14.97;;;2.70;99.90;;;;;;4113346;28;20273;-67
2022/12/16 03:01:33;;;;;;;35.43;15.23;;;2.70;99.90;;;;;;4114298;28;20351;-65
2022/12/16 03:03:46;;;;;;;36.00;14.83;;;2.70;99.90;;;;;;4113322;28;20737;-63
2022/12/16 03:05:51;;;;;;;37.70;14.37;;;2.70;99.90;;;;;;4114192;28;20821;-67
2022/12/16 03:07:55;;;;;;;33.80;15.63;;;2.70;99.90;;;;;;4112593;28;20598;-65
2022/12/16 03:09:57;;;;;;;33.13;13.73;;;2.70;99.90;;;;;;4114425;28;20331;-66
2022/12/16 03:12:03;;;;;;;31.70;13.93;;;2.70;99.90;;;;;;4112814;28;20359;-62
2022/12/16 03:14:07;;;;;;;30.03;13.00;;;2.70;99.90;;;;;;4113255;28;20331;-66
2022/12/16 03:16:11;;;;;;;40.47;16.23;;;2.70;99.90;;;;;;4112751;28;20803;-64
2022/12/16 03:18:13;;;;;;;49.37;20.53;;;2.70;99.90;;;;;;4113568;28;20265;-64
2022/12/16 03:20:26;;;;;;;42.93;18.60;;;2.80;99.90;;;;;;4111247;28;20268;-65
2022/12/16 03:22:30;;;;;;;31.57;13.47;;;2.80;99.90;;;;;;4113327;28;20700;-66
2022/12/16 03:24:32;;;;;;;32.37;14.20;;;2.80;99.90;;;;;;4111884;28;20363;-63
2022/12/16 03:26:43;;;;;;;30.23;14.50;;;2.80;99.90;;;;;;4113105;28;20653;-64
2022/12/16 03:28:58;;;;;;;35.77;15.70;;;2.80;99.90;;;;;;4112504;28;20347;-64
2022/12/16 03:31:29;;;;;;;40.20;18.20;;;2.80;99.90;;;;;;4113917;28;20277;-62
2022/12/16 03:33:39;;;;;;;37.55;15.48;;;2.90;99.90;;;;;;4102255;28;20336;-63
2022/12/16 03:35:53;;;;;;;34.78;14.32;;;2.90;99.90;;;;;;4112286;28;20074;-66
2022/12/16 03:37:57;;;;;;;30.93;13.00;;;2.90;99.90;;;;;;4112191;28;20034;-65
2022/12/16 03:40:02;;;;;;;30.77;14.43;;;2.90;99.90;;;;;;4113099;28;20276;-66
2022/12/16 03:42:04;;;;;;;27.40;12.57;;;2.90;99.90;;;;;;4112890;28;20594;-64
2022/12/16 03:44:07;;;;;;;28.97;13.33;;;2.90;99.90;;;;;;4113794;28;20323;-64
2022/12/16 03:46:09;;;;;;;27.17;12.83;;;2.90;99.90;;;;;;4112542;28;20276;-63
2022/12/16 03:48:12;;;;;;;21.70;10.70;;;2.90;99.90;;;;;;4113070;28;20272;-64
2022/12/16 03:50:14;;;;;;;23.13;11.43;;;3.00;99.90;;;;;;4112587;28;20280;-64
2022/12/16 03:52:15;;;;;;;26.93;12.80;;;2.90;99.90;;;;;;4113243;28;22094;-65
2022/12/16 03:54:17;;;;;;;26.50;12.63;;;2.90;99.90;;;;;;4112576;28;20653;-64
2022/12/16 03:56:19;;;;;;;26.40;13.20;;;2.90;99.90;;;;;;4113099;28;20427;-65
2022/12/16 03:58:20;;;;;;;32.60;14.40;;;2.90;99.90;;;;;;4112015;28;20284;-65
2022/12/16 04:00:22;;;;;;;30.80;13.43;;;2.90;99.90;;;;;;4112191;28;20269;-65
2022/12/16 04:02:24;;;;;;;30.57;13.67;;;2.90;99.90;;;;;;4113130;28;20343;-60
2022/12/16 04:04:25;;;;;;;34.97;15.33;;;2.90;99.90;;;;;;4111124;28;20769;-63
2022/12/16 04:06:26;;;;;;;31.30;13.27;;;2.90;99.90;;;;;;4113030;28;20265;-65
2022/12/16 04:08:27;;;;;;;36.20;16.07;;;2.90;99.90;;;;;;4112468;28;20311;-65
2022/12/16 04:24:37;;;;;;;19.50;10.88;;;3.00;99.90;;;;;;4092199;28;20027;-65
2022/12/16 04:28:58;;;;;;;21.37;10.67;;;3.00;99.90;;;;;;4111912;28;20340;-66
2022/12/16 04:30:59;;;;;;;20.80;10.37;;;3.10;99.90;;;;;;4112836;28;20276;-66
